createdAt,value
2023-08-21T00:01:40.423Z,20.60
2023-08-21T00:04:09.139Z,20.60
2023-08-21T00:06:38.751Z,20.60
2023-08-21T00:09:07.285Z,20.50
2023-08-21T00:11:35.789Z,20.50
2023-08-21T00:14:03.975Z,20.50
2023-08-21T00:16:32.513Z,20.40
2023-08-21T00:19:00.816Z,20.40
2023-08-21T00:21:29.237Z,20.40
2023-08-21T00:23:58.877Z,20.40
2023-08-21T00:26:27.167Z,20.30
2023-08-21T00:28:55.300Z,20.30
2023-08-21T00:31:23.751Z,20.20
2023-08-21T00:33:52.076Z,20.20
2023-08-21T00:36:20.978Z,20.20
2023-08-21T00:38:49.718Z,20.10
2023-08-21T00:41:19.727Z,20.10
2023-08-21T00:43:47.894Z,20.00
2023-08-21T00:46:16.917Z,20.00
2023-08-21T00:48:46.419Z,20.00
2023-08-21T00:51:17.336Z,20.00
2023-08-21T00:53:46.810Z,19.90
2023-08-21T00:56:16.123Z,19.90
2023-08-21T00:58:46.164Z,19.90
2023-08-21T01:01:16.485Z,19.90
2023-08-21T01:03:44.815Z,19.80
2023-08-21T01:06:13.098Z,19.80
2023-08-21T01:08:49.948Z,19.80
2023-08-21T01:11:23.709Z,19.70
2023-08-21T01:14:05.567Z,19.70
2023-08-21T01:16:34.703Z,19.60
2023-08-21T01:19:05.863Z,19.70
2023-08-21T01:21:34.467Z,19.70
2023-08-21T01:24:04.101Z,19.60
2023-08-21T01:26:32.494Z,19.60
2023-08-21T01:29:01.059Z,19.60
2023-08-21T01:31:33.655Z,19.60
2023-08-21T01:34:06.654Z,19.60
2023-08-21T01:36:35.860Z,19.60
2023-08-21T01:39:06.140Z,19.60
2023-08-21T01:41:34.821Z,19.60
2023-08-21T01:44:03.182Z,19.50
2023-08-21T01:46:31.347Z,19.50
2023-08-21T01:48:59.836Z,19.40
2023-08-21T01:51:27.996Z,19.40
2023-08-21T01:53:56.131Z,19.30
2023-08-21T01:56:26.036Z,19.40
2023-08-21T01:58:54.166Z,19.40
2023-08-21T02:01:22.548Z,19.40
2023-08-21T02:03:51.094Z,19.40
2023-08-21T02:06:19.205Z,19.40
2023-08-21T02:08:47.391Z,19.40
2023-08-21T02:11:15.945Z,19.40
2023-08-21T02:13:45.557Z,19.40
2023-08-21T02:16:13.756Z,19.50
2023-08-21T02:18:42.217Z,19.50
2023-08-21T02:21:10.581Z,19.50
2023-08-21T02:23:38.712Z,19.60
2023-08-21T02:26:07.330Z,19.60
2023-08-21T02:28:35.708Z,19.50
2023-08-21T02:31:06.274Z,19.50
2023-08-21T02:33:34.549Z,19.60
2023-08-21T02:36:09.298Z,19.50
2023-08-21T02:38:38.349Z,19.50
2023-08-21T02:41:06.551Z,19.60
2023-08-21T02:43:34.771Z,19.50
2023-08-21T02:46:04.440Z,19.50
2023-08-21T02:48:32.878Z,19.40
2023-08-21T02:51:02.948Z,19.40
2023-08-21T02:53:32.995Z,19.30
2023-08-21T02:56:01.218Z,19.20
2023-08-21T02:58:29.418Z,19.20
2023-08-21T03:00:58.017Z,19.20
2023-08-21T03:03:27.673Z,19.20
2023-08-21T03:05:55.811Z,19.20
2023-08-21T03:08:24.361Z,19.20
2023-08-21T03:10:52.553Z,19.10
2023-08-21T03:13:20.769Z,19.10
2023-08-21T03:15:49.445Z,19.10
2023-08-21T03:18:17.652Z,19.10
2023-08-21T03:20:48.513Z,19.10
2023-08-21T03:23:17.158Z,19.10
2023-08-21T03:25:45.345Z,19.10
2023-08-21T03:28:13.545Z,19.00
2023-08-21T03:30:42.530Z,19.00
2023-08-21T03:33:10.739Z,19.00
2023-08-21T03:35:39.088Z,18.90
2023-08-21T03:38:09.280Z,18.90
2023-08-21T03:40:37.509Z,18.90
2023-08-21T03:43:05.780Z,18.90
2023-08-21T03:45:34.409Z,18.80
2023-08-21T03:48:02.593Z,18.80
2023-08-21T03:50:30.774Z,18.80
2023-08-21T03:52:59.023Z,18.70
2023-08-21T03:55:28.621Z,18.70
2023-08-21T03:57:56.752Z,18.70
2023-08-21T04:00:25.315Z,18.70
2023-08-21T04:02:54.139Z,18.70
2023-08-21T04:05:22.314Z,18.70
2023-08-21T04:07:50.500Z,18.60
2023-08-21T04:10:19.221Z,18.50
2023-08-21T04:12:48.724Z,18.50
2023-08-21T04:15:17.023Z,18.50
2023-08-21T04:17:45.674Z,18.40
2023-08-21T04:20:14.429Z,18.40
2023-08-21T04:22:42.732Z,18.40
2023-08-21T04:25:12.499Z,18.40
2023-08-21T04:27:40.700Z,18.40
2023-08-21T04:30:11.790Z,18.30
2023-08-21T04:32:40.594Z,18.30
2023-08-21T04:35:10.407Z,18.30
2023-08-21T04:37:44.918Z,18.30
2023-08-21T04:40:14.108Z,18.30
2023-08-21T04:42:42.461Z,18.20
2023-08-21T04:45:12.737Z,18.20
2023-08-21T04:47:41.125Z,18.20
2023-08-21T04:50:10.127Z,18.20
2023-08-21T04:52:38.673Z,18.20
2023-08-21T04:55:08.382Z,18.20
2023-08-21T04:57:36.614Z,18.10
2023-08-21T05:00:06.372Z,18.20
2023-08-21T05:02:36.796Z,18.20
2023-08-21T05:05:06.330Z,18.20
2023-08-21T05:07:34.691Z,18.20
2023-08-21T05:10:02.988Z,18.30
2023-08-21T05:12:31.399Z,18.30
2023-08-21T05:14:59.661Z,18.40
2023-08-21T05:17:28.013Z,18.40
2023-08-21T05:19:58.064Z,18.50
2023-08-21T05:22:26.313Z,18.50
2023-08-21T05:24:54.490Z,18.40
2023-08-21T05:27:22.834Z,18.40
2023-08-21T05:29:52.595Z,18.40
2023-08-21T05:32:20.862Z,18.40
2023-08-21T05:34:49.404Z,18.40
2023-08-21T05:37:19.109Z,18.40
2023-08-21T05:39:47.339Z,18.40
2023-08-21T05:42:15.860Z,18.60
2023-08-21T05:44:44.079Z,18.70
2023-08-21T05:47:12.292Z,18.70
2023-08-21T05:49:40.694Z,18.80
2023-08-21T05:52:08.959Z,18.90
2023-08-21T05:54:38.887Z,19.10
2023-08-21T05:57:07.069Z,19.30
2023-08-21T05:59:35.633Z,19.40
2023-08-21T06:02:04.041Z,19.70
2023-08-21T06:04:32.446Z,20.00
2023-08-21T06:07:00.703Z,20.40
2023-08-21T06:09:32.794Z,20.80
2023-08-21T06:12:03.141Z,21.20
2023-08-21T06:14:32.048Z,21.70
2023-08-21T06:17:01.229Z,22.10
2023-08-21T06:19:29.908Z,22.40
2023-08-21T06:21:58.647Z,22.60
2023-08-21T06:24:27.111Z,22.90
2023-08-21T06:26:55.502Z,23.10
2023-08-21T06:29:25.311Z,23.40
2023-08-21T06:31:53.490Z,23.60
2023-08-21T06:34:21.762Z,23.80
2023-08-21T06:36:50.024Z,23.90
2023-08-21T06:39:18.332Z,24.10
2023-08-21T06:41:47.210Z,24.20
2023-08-21T06:44:15.578Z,24.40
2023-08-21T06:46:45.491Z,24.60
2023-08-21T06:49:14.034Z,25.00
2023-08-21T06:51:42.498Z,25.10
2023-08-21T06:54:10.747Z,25.20
2023-08-21T06:56:39.126Z,25.10
2023-08-21T06:59:07.405Z,25.00
2023-08-21T07:01:35.661Z,25.00
2023-08-21T07:04:05.660Z,25.00
2023-08-21T07:06:34.164Z,25.00
2023-08-21T07:09:02.330Z,24.90
2023-08-21T07:11:30.708Z,24.80
2023-08-21T07:13:59.125Z,24.60
2023-08-21T07:16:27.992Z,24.60
2023-08-21T07:18:56.320Z,24.70
2023-08-21T07:21:33.584Z,24.10
2023-08-21T07:24:03.933Z,23.80
2023-08-21T07:26:32.478Z,23.70
2023-08-21T07:29:00.697Z,23.60
2023-08-21T07:31:29.128Z,23.60
2023-08-21T07:33:57.873Z,23.40
2023-08-21T07:36:27.469Z,23.40
2023-08-21T07:38:55.723Z,23.30
2023-08-21T07:41:26.299Z,23.20
2023-08-21T07:43:55.872Z,23.10
2023-08-21T07:46:25.259Z,23.10
2023-08-21T07:48:54.856Z,23.20
2023-08-21T07:51:23.067Z,23.20
2023-08-21T07:53:52.723Z,23.20
2023-08-21T07:56:21.286Z,23.40
2023-08-21T07:58:49.629Z,23.40
2023-08-21T08:01:18.029Z,23.80
2023-08-21T08:03:46.508Z,24.50
2023-08-21T08:06:15.049Z,25.10
2023-08-21T08:08:43.971Z,25.50
2023-08-21T08:11:13.866Z,25.80
2023-08-21T08:13:42.177Z,25.90
2023-08-21T08:16:10.592Z,26.10
2023-08-21T08:18:38.909Z,26.40
2023-08-21T08:21:07.099Z,26.70
2023-08-21T08:23:35.406Z,26.80
2023-08-21T08:26:03.837Z,27.00
2023-08-21T08:28:33.547Z,26.80
2023-08-21T08:31:01.893Z,27.20
2023-08-21T08:33:30.417Z,27.60
2023-08-21T08:36:02.532Z,27.70
2023-08-21T08:38:31.124Z,28.10
2023-08-21T08:41:00.072Z,28.40
2023-08-21T08:43:31.060Z,28.80
2023-08-21T08:46:02.440Z,29.00
2023-08-21T08:48:31.206Z,29.00
2023-08-21T08:50:59.848Z,29.00
2023-08-21T08:53:29.579Z,29.00
2023-08-21T08:55:57.984Z,28.80
2023-08-21T08:58:26.881Z,29.10
2023-08-21T09:00:55.047Z,29.20
2023-08-21T09:03:25.139Z,29.80
2023-08-21T09:05:53.480Z,29.80
2023-08-21T09:08:22.272Z,30.10
2023-08-21T09:10:50.726Z,30.10
2023-08-21T09:13:20.929Z,30.30
2023-08-21T09:15:50.687Z,30.70
2023-08-21T09:18:19.187Z,31.10
2023-08-21T09:20:49.518Z,31.30
2023-08-21T09:23:19.155Z,31.00
2023-08-21T09:25:49.824Z,30.70
2023-08-21T09:28:22.497Z,31.00
2023-08-21T09:30:53.308Z,31.30
2023-08-21T09:33:22.268Z,31.20
2023-08-21T09:35:54.986Z,31.40
2023-08-21T09:38:23.444Z,31.50
2023-08-21T09:40:57.068Z,31.60
2023-08-21T09:43:26.718Z,31.60
2023-08-21T09:45:57.580Z,31.40
2023-08-21T09:48:29.144Z,31.30
2023-08-21T09:50:58.892Z,31.40
2023-08-21T09:53:27.363Z,31.50
2023-08-21T09:55:57.055Z,31.70
2023-08-21T09:58:26.428Z,31.70
2023-08-21T10:00:59.303Z,32.30
2023-08-21T10:03:28.894Z,32.30
2023-08-21T10:06:01.611Z,32.50
2023-08-21T10:08:31.341Z,32.40
2023-08-21T10:11:04.257Z,32.50
2023-08-21T10:13:34.146Z,32.80
2023-08-21T10:16:03.195Z,32.70
2023-08-21T10:18:36.248Z,32.70
2023-08-21T10:21:17.991Z,32.70
2023-08-21T10:23:50.110Z,32.90
2023-08-21T10:26:21.777Z,33.20
2023-08-21T10:28:54.540Z,33.00
2023-08-21T10:31:33.044Z,33.10
2023-08-21T10:34:03.065Z,33.10
2023-08-21T10:37:02.580Z,32.90
2023-08-21T10:39:32.593Z,33.00
2023-08-21T10:42:04.548Z,33.30
2023-08-21T10:44:51.640Z,33.50
2023-08-21T10:47:22.106Z,33.40
2023-08-21T10:49:52.496Z,33.40
2023-08-21T10:52:25.910Z,33.20
2023-08-21T10:54:56.115Z,33.40
2023-08-21T10:57:25.336Z,33.70
2023-08-21T10:59:55.462Z,34.10
2023-08-21T11:02:24.450Z,34.00
2023-08-21T11:04:53.320Z,34.00
2023-08-21T11:07:23.339Z,33.60
2023-08-21T11:09:51.881Z,33.10
2023-08-21T11:12:21.340Z,33.10
2023-08-21T11:14:49.938Z,33.10
2023-08-21T11:17:20.833Z,33.20
2023-08-21T11:19:51.082Z,33.40
2023-08-21T11:22:19.382Z,33.40
2023-08-21T11:24:52.373Z,33.60
2023-08-21T11:27:24.181Z,33.60
2023-08-21T11:29:54.433Z,33.80
2023-08-21T11:32:24.662Z,33.90
2023-08-21T11:34:54.621Z,34.40
2023-08-21T11:37:24.429Z,34.60
2023-08-21T11:39:55.650Z,34.70
2023-08-21T11:42:31.427Z,34.30
2023-08-21T11:45:01.305Z,34.00
2023-08-21T11:47:33.975Z,33.40
2023-08-21T11:50:06.641Z,33.60
2023-08-21T11:52:39.658Z,33.70
2023-08-21T11:55:12.166Z,33.80
2023-08-21T11:57:49.717Z,33.70
2023-08-21T12:00:20.236Z,33.30
2023-08-21T12:02:57.577Z,33.70
2023-08-21T12:05:26.503Z,33.70
2023-08-21T12:07:55.190Z,33.90
2023-08-21T12:10:28.895Z,33.80
2023-08-21T12:12:57.670Z,33.80
2023-08-21T12:15:25.902Z,33.70
2023-08-21T12:17:54.166Z,33.70
2023-08-21T12:20:23.261Z,33.50
2023-08-21T12:22:51.445Z,33.70
2023-08-21T12:25:19.863Z,33.70
2023-08-21T12:27:54.742Z,33.50
2023-08-21T12:30:29.546Z,33.40
2023-08-21T12:33:03.456Z,33.30
2023-08-21T12:35:37.378Z,33.60
2023-08-21T12:38:13.671Z,33.80
2023-08-21T12:40:42.063Z,34.20
2023-08-21T12:43:11.855Z,34.40
2023-08-21T12:45:40.104Z,34.20
2023-08-21T12:48:09.309Z,34.10
2023-08-21T12:50:37.568Z,33.70
2023-08-21T12:53:06.087Z,33.80
2023-08-21T12:55:34.888Z,34.10
2023-08-21T12:58:03.277Z,34.00
2023-08-21T13:00:33.893Z,34.00
2023-08-21T13:03:02.431Z,33.70
2023-08-21T13:05:30.678Z,33.70
2023-08-21T13:07:59.028Z,33.70
2023-08-21T13:10:27.676Z,33.70
2023-08-21T13:12:55.929Z,33.70
2023-08-21T13:15:24.128Z,33.70
2023-08-21T13:17:53.902Z,33.50
2023-08-21T13:20:22.150Z,33.70
2023-08-21T13:22:52.252Z,33.80
2023-08-21T13:25:21.676Z,33.90
2023-08-21T13:27:50.312Z,33.70
2023-08-21T13:30:18.903Z,33.70
2023-08-21T13:32:47.636Z,33.80
2023-08-21T13:35:18.010Z,33.70
2023-08-21T13:37:46.247Z,33.50
2023-08-21T13:40:17.934Z,33.10
2023-08-21T13:42:47.412Z,32.90
2023-08-21T13:45:17.421Z,33.00
2023-08-21T13:47:48.909Z,33.00
2023-08-21T13:50:20.037Z,33.20
2023-08-21T13:52:49.428Z,33.00
2023-08-21T13:55:18.986Z,32.90
2023-08-21T13:57:47.377Z,32.90
2023-08-21T14:00:19.319Z,32.50
2023-08-21T14:02:47.904Z,32.50
2023-08-21T14:05:16.194Z,32.50
2023-08-21T14:07:45.989Z,32.30
2023-08-21T14:10:15.668Z,32.30
2023-08-21T14:12:44.277Z,32.30
2023-08-21T14:15:13.109Z,32.30
2023-08-21T14:17:41.917Z,32.20
2023-08-21T14:20:12.181Z,32.20
2023-08-21T14:22:40.675Z,32.40
2023-08-21T14:25:11.641Z,32.50
2023-08-21T14:27:40.219Z,32.70
2023-08-21T14:30:09.951Z,32.70
2023-08-21T14:32:38.896Z,32.80
2023-08-21T14:35:09.176Z,32.90
2023-08-21T14:37:38.439Z,33.00
2023-08-21T14:40:09.247Z,33.00
2023-08-21T14:42:40.004Z,32.70
2023-08-21T14:45:12.070Z,32.60
2023-08-21T14:47:40.767Z,32.40
2023-08-21T14:50:09.698Z,32.30
2023-08-21T14:52:38.140Z,32.30
2023-08-21T14:55:07.275Z,32.30
2023-08-21T14:57:35.529Z,32.40
2023-08-21T15:00:05.889Z,32.30
2023-08-21T15:02:34.283Z,32.40
2023-08-21T15:05:06.881Z,32.40
2023-08-21T15:07:35.456Z,32.40
2023-08-21T15:10:04.063Z,32.50
2023-08-21T15:12:32.263Z,32.50
2023-08-21T15:15:00.687Z,32.50
2023-08-21T15:17:30.381Z,32.30
2023-08-21T15:19:58.651Z,32.20
2023-08-21T15:22:26.949Z,32.10
2023-08-21T15:24:55.431Z,31.60
2023-08-21T15:27:23.709Z,31.60
2023-08-21T15:29:51.975Z,31.60
2023-08-21T15:32:20.336Z,31.50
2023-08-21T15:34:49.954Z,31.40
2023-08-21T15:37:18.330Z,31.40
2023-08-21T15:39:46.561Z,31.50
2023-08-21T15:42:14.743Z,31.30
2023-08-21T15:44:42.989Z,31.20
2023-08-21T15:49:42.437Z,31.10
2023-08-21T15:52:12.764Z,31.10
2023-08-21T15:54:41.569Z,31.00
2023-08-21T15:57:11.605Z,31.00
2023-08-21T15:59:40.540Z,30.90
2023-08-21T16:02:08.718Z,30.70
2023-08-21T16:04:36.979Z,30.60
2023-08-21T16:07:05.832Z,30.60
2023-08-21T16:09:35.368Z,30.70
2023-08-21T16:12:04.105Z,30.60
2023-08-21T16:14:32.474Z,30.70
2023-08-21T16:17:00.613Z,30.50
2023-08-21T16:19:28.840Z,30.30
2023-08-21T16:21:57.428Z,30.20
2023-08-21T16:24:25.577Z,30.00
2023-08-21T16:26:55.136Z,30.10
2023-08-21T16:29:24.149Z,30.00
2023-08-21T16:31:53.687Z,29.90
2023-08-21T16:34:21.977Z,29.70
2023-08-21T16:36:50.406Z,29.70
2023-08-21T16:39:19.086Z,29.60
2023-08-21T16:41:47.387Z,29.50
2023-08-21T16:44:18.400Z,29.40
2023-08-21T16:46:46.607Z,29.50
2023-08-21T16:49:14.789Z,29.30
2023-08-21T16:51:43.436Z,29.40
2023-08-21T16:54:11.760Z,29.40
2023-08-21T16:56:39.989Z,29.30
2023-08-21T16:59:08.183Z,29.30
2023-08-21T17:01:38.186Z,29.10
2023-08-21T17:04:06.486Z,28.90
2023-08-21T17:06:34.938Z,28.80
2023-08-21T17:09:05.784Z,28.60
2023-08-21T17:11:34.094Z,28.60
2023-08-21T17:14:02.405Z,28.50
2023-08-21T17:16:30.913Z,28.40
2023-08-21T17:19:00.498Z,28.30
2023-08-21T17:21:30.957Z,28.10
2023-08-21T17:23:59.568Z,28.10
2023-08-21T17:26:27.821Z,28.10
2023-08-21T17:28:56.137Z,28.00
2023-08-21T17:31:24.870Z,28.00
2023-08-21T17:33:53.739Z,27.90
2023-08-21T17:36:23.479Z,27.90
2023-08-21T17:38:54.844Z,27.80
2023-08-21T17:41:23.047Z,27.70
2023-08-21T17:43:51.302Z,27.60
2023-08-21T17:46:19.725Z,27.50
2023-08-21T17:48:47.972Z,27.50
2023-08-21T17:51:16.243Z,27.40
2023-08-21T17:53:45.916Z,27.30
2023-08-21T17:56:14.169Z,27.20
2023-08-21T17:58:42.396Z,27.10
2023-08-21T18:01:11.766Z,27.00
2023-08-21T18:03:40.562Z,26.90
2023-08-21T18:06:09.266Z,26.90
2023-08-21T18:08:38.119Z,26.80
2023-08-21T18:11:08.835Z,26.70
2023-08-21T18:13:37.061Z,26.60
2023-08-21T18:16:05.832Z,26.50
2023-08-21T18:18:35.862Z,26.50
2023-08-21T18:21:04.237Z,26.40
2023-08-21T18:23:33.496Z,26.20
2023-08-21T18:26:03.290Z,26.10
2023-08-21T18:28:33.430Z,26.00
2023-08-21T18:31:02.647Z,25.90
2023-08-21T18:33:31.142Z,25.90
2023-08-21T18:36:02.422Z,25.70
2023-08-21T18:38:30.785Z,25.60
2023-08-21T18:40:59.547Z,25.50
2023-08-21T18:43:27.791Z,25.40
2023-08-21T18:45:58.442Z,25.30
2023-08-21T18:48:26.693Z,25.30
2023-08-21T18:50:57.257Z,25.10
2023-08-21T18:53:26.229Z,24.90
2023-08-21T18:55:54.437Z,24.80
2023-08-21T18:58:22.771Z,24.70
2023-08-21T19:00:51.144Z,24.60
2023-08-21T19:03:20.862Z,24.50
2023-08-21T19:05:49.112Z,24.40
2023-08-21T19:08:17.810Z,24.30
2023-08-21T19:10:45.972Z,24.30
2023-08-21T19:13:14.147Z,24.20
2023-08-21T19:15:43.177Z,24.20
2023-08-21T19:18:11.530Z,24.10
2023-08-21T19:20:42.059Z,24.10
2023-08-21T19:23:10.471Z,24.00
2023-08-21T19:25:38.605Z,24.00
2023-08-21T19:28:07.322Z,23.90
2023-08-21T19:30:38.697Z,23.80
2023-08-21T19:33:07.117Z,23.70
2023-08-21T19:35:36.344Z,23.40
2023-08-21T19:38:06.302Z,23.30
2023-08-21T19:40:38.801Z,23.10
2023-08-21T19:43:07.578Z,23.20
2023-08-21T19:45:35.835Z,23.20
2023-08-21T19:48:04.346Z,23.10
2023-08-21T19:50:34.376Z,23.00
2023-08-21T19:53:02.586Z,23.00
2023-08-21T19:55:33.141Z,22.90
2023-08-21T19:58:01.624Z,22.90
2023-08-21T20:00:29.837Z,22.80
2023-08-21T20:03:00.082Z,22.80
2023-08-21T20:05:28.441Z,22.70
2023-08-21T20:07:56.639Z,22.60
2023-08-21T20:10:24.945Z,22.40
2023-08-21T20:12:54.902Z,22.30
2023-08-21T20:15:23.087Z,22.20
2023-08-21T20:17:51.529Z,22.10
2023-08-21T20:20:20.124Z,22.10
2023-08-21T20:22:48.362Z,22.00
2023-08-21T20:25:16.705Z,21.90
2023-08-21T20:27:45.251Z,22.00
2023-08-21T20:30:15.969Z,21.90
2023-08-21T20:32:45.210Z,21.80
2023-08-21T20:35:13.704Z,21.80
2023-08-21T20:37:43.433Z,21.80
2023-08-21T20:40:12.698Z,21.80
2023-08-21T20:42:43.172Z,21.80
2023-08-21T20:45:12.865Z,21.80
2023-08-21T20:47:43.730Z,21.90
2023-08-21T20:50:12.987Z,21.80
2023-08-21T20:52:41.486Z,21.80
2023-08-21T20:55:10.265Z,21.70
2023-08-21T20:57:39.107Z,21.70
2023-08-21T21:00:10.046Z,21.70
2023-08-21T21:02:38.666Z,21.70
2023-08-21T21:05:10.956Z,21.80
2023-08-21T21:07:40.049Z,21.80
2023-08-21T21:10:10.237Z,21.80
2023-08-21T21:12:38.517Z,21.70
2023-08-21T21:15:07.805Z,21.60
2023-08-21T21:17:36.102Z,21.60
2023-08-21T21:20:04.704Z,21.50
2023-08-21T21:22:34.444Z,21.60
2023-08-21T21:25:04.653Z,21.50
2023-08-21T21:27:32.934Z,21.60
2023-08-21T21:30:01.467Z,21.50
2023-08-21T21:32:29.919Z,21.50
2023-08-21T21:34:58.336Z,21.50
2023-08-21T21:37:26.915Z,21.50
2023-08-21T21:39:56.690Z,21.40
2023-08-21T21:42:29.362Z,21.40
2023-08-21T21:44:57.838Z,21.40
2023-08-21T21:47:26.033Z,21.40
2023-08-21T21:49:54.319Z,21.40
2023-08-21T21:52:22.598Z,21.30
2023-08-21T21:54:50.780Z,21.30
2023-08-21T21:57:20.368Z,21.20
2023-08-21T21:59:48.748Z,21.10
2023-08-21T22:02:16.986Z,21.10
2023-08-21T22:04:45.357Z,21.00
2023-08-21T22:07:14.916Z,20.90
2023-08-21T22:09:44.592Z,20.90
2023-08-21T22:12:14.713Z,20.90
2023-08-21T22:14:45.441Z,21.00
2023-08-21T22:17:13.574Z,21.00
2023-08-21T22:19:41.804Z,20.90
2023-08-21T22:22:10.343Z,20.90
2023-08-21T22:24:38.516Z,20.80
2023-08-21T22:27:06.832Z,20.80
2023-08-21T22:29:35.131Z,20.80
2023-08-21T22:32:04.915Z,20.80
2023-08-21T22:34:33.170Z,20.70
2023-08-21T22:37:01.655Z,20.70
2023-08-21T22:39:29.916Z,20.70
2023-08-21T22:41:58.421Z,20.60
2023-08-21T22:44:26.700Z,20.60
2023-08-21T22:46:54.838Z,20.60
2023-08-21T22:49:24.748Z,20.60
2023-08-21T22:51:54.183Z,20.60
2023-08-21T22:54:22.384Z,20.60
2023-08-21T22:56:50.660Z,20.50
2023-08-21T22:59:19.047Z,20.50
2023-08-21T23:01:47.314Z,20.40
2023-08-21T23:04:17.990Z,20.40
2023-08-21T23:06:47.687Z,20.40
2023-08-21T23:09:16.373Z,20.40
2023-08-21T23:11:44.552Z,20.30
2023-08-21T23:14:13.157Z,20.30
2023-08-21T23:16:41.602Z,20.30
2023-08-21T23:19:09.805Z,20.20
2023-08-21T23:21:38.126Z,20.10
2023-08-21T23:24:08.142Z,20.10
2023-08-21T23:26:36.350Z,20.10
2023-08-21T23:29:05.550Z,20.00
2023-08-21T23:31:34.359Z,20.00
2023-08-21T23:34:03.359Z,20.00
2023-08-21T23:36:31.765Z,20.00
2023-08-21T23:39:00.129Z,20.00
2023-08-21T23:41:29.679Z,19.90
2023-08-21T23:43:58.515Z,19.90
2023-08-21T23:46:26.772Z,19.90
2023-08-21T23:48:55.104Z,19.80
2023-08-21T23:51:23.664Z,19.80
2023-08-21T23:53:51.856Z,19.90
2023-08-21T23:56:20.046Z,19.80
2023-08-21T23:58:49.797Z,19.80
